Time;durP1;ratioP1;P1;durP2;ratioP2;P2;SDS_P1;SDS_P2;PMS_P1;PMS_P2;Temp;Humidity;BMP_temperature;BMP_pressure;BME280_temperature;BME280_humidity;BME280_pressure;Samples;Min_cycle;Max_cycle;Signal;HPM_P1;HPM_P2
2021/12/03 00:00:15;;;;;;;4.23;1.83;;;;;;;12.34;43.61;101113.34;5051133;28;20070;-70
2021/12/03 00:02:40;;;;;;;2.75;1.58;;;;;;;12.00;42.91;101098.91;5051363;28;20032;-69
2021/12/03 00:05:06;;;;;;;3.43;2.03;;;;;;;12.26;42.45;101108.19;5052001;28;20085;-69
2021/12/03 00:07:33;;;;;;;8.97;1.90;;;;;;;11.81;43.17;101102.56;5069482;28;20479;-70
2021/12/03 00:09:58;;;;;;;4.00;1.87;;;;;;;10.80;45.70;101110.44;5052065;28;20119;-70
2021/12/03 00:12:24;;;;;;;4.97;2.20;;;;;;;10.40;47.82;101126.31;5051376;28;20124;-70
2021/12/03 00:14:49;;;;;;;6.27;2.07;;;;;;;11.60;44.18;101115.00;5051507;28;20067;-70
2021/12/03 00:17:15;;;;;;;3.17;2.00;;;;;;;11.31;44.52;101113.53;5052028;28;20088;-70
2021/12/03 00:19:40;;;;;;;5.77;2.20;;;;;;;11.37;45.02;101108.25;5070285;28;20131;-70
2021/12/03 00:22:06;;;;;;;5.20;2.30;;;;;;;12.49;41.92;101118.38;5033273;28;20123;-70
2021/12/03 00:24:31;;;;;;;6.10;2.10;;;;;;;12.62;42.19;101119.06;5032477;28;20481;-70
2021/12/03 00:26:56;;;;;;;4.73;2.20;;;;;;;12.28;41.97;101122.16;5052782;28;20405;-70
2021/12/03 00:29:22;;;;;;;3.47;2.10;;;;;;;12.22;42.08;101119.59;5050976;28;20089;-70
2021/12/03 00:31:47;;;;;;;4.37;2.23;;;;;;;12.20;43.23;101116.16;5051357;28;20056;-70
2021/12/03 00:34:13;;;;;;;8.23;1.50;;;;;;;12.54;41.58;101115.69;5051867;28;20013;-70
2021/12/03 00:36:38;;;;;;;2.20;1.47;;;;;;;12.42;42.13;101115.84;5046860;28;20143;-70
2021/12/03 00:39:04;;;;;;;1.33;1.23;;;;;;;12.43;42.20;101112.34;5049912;28;20398;-70
2021/12/03 00:41:33;;;;;;;3.30;1.43;;;;;;;12.35;42.96;101120.31;5049665;28;20025;-70
2021/12/03 00:43:59;;;;;;;2.10;1.10;;;;;;;11.48;44.00;101125.59;5031865;28;20025;-70
2021/12/03 00:46:24;;;;;;;3.13;0.83;;;;;;;12.15;43.41;101120.56;5032450;28;20028;-70
2021/12/03 00:48:53;;;;;;;9.47;1.10;;;;;;;12.21;42.99;101113.50;5063261;28;20028;-70
2021/12/03 00:51:21;;;;;;;1.90;1.03;;;;;;;12.28;42.55;101124.78;5051860;28;20502;-70
2021/12/03 00:53:47;;;;;;;3.30;1.03;;;;;;;12.34;43.17;101119.44;5069889;28;20032;-70
2021/12/03 00:56:14;;;;;;;2.40;0.87;;;;;;;11.83;44.11;101121.78;5068886;28;20020;-69
2021/12/03 00:58:40;;;;;;;4.07;1.07;;;;;;;12.30;42.70;101123.00;5051381;28;20455;-69
2021/12/03 01:01:07;;;;;;;4.30;1.57;;;;;;;11.74;44.66;101116.63;5051363;28;20032;-69
2021/12/03 01:03:33;;;;;;;1.27;0.70;;;;;;;12.42;42.49;101108.00;5069083;28;20044;-69
2021/12/03 01:05:59;;;;;;;1.30;0.80;;;;;;;12.65;42.23;101111.19;5050597;28;20028;-69
2021/12/03 01:08:24;;;;;;;2.03;1.70;;;;;;;12.61;42.10;101106.88;5031604;28;20446;-70
2021/12/03 01:10:51;;;;;;;1.67;0.80;;;;;;;12.58;42.24;101111.28;5048884;28;20528;-70
2021/12/03 01:13:16;;;;;;;2.97;0.83;;;;;;;11.74;44.78;101107.00;5035518;28;20016;-69
2021/12/03 01:15:42;;;;;;;4.03;0.63;;;;;;;12.49;42.93;101107.03;5036040;28;20508;-69
2021/12/03 01:18:10;;;;;;;6.83;1.20;;;;;;;12.17;43.53;101095.19;5071344;28;20032;-72
2021/12/03 01:20:36;;;;;;;4.40;0.77;;;;;;;11.46;45.47;101095.97;5055270;28;20045;-72
2021/12/03 01:23:02;;;;;;;1.07;0.80;;;;;;;12.54;43.73;101099.97;5072750;28;20552;-71
2021/12/03 01:25:28;;;;;;;2.67;0.70;;;;;;;12.42;43.46;101094.88;5073158;28;20488;-69
2021/12/03 01:27:53;;;;;;;2.87;0.60;;;;;;;12.28;43.56;101098.59;5054901;28;20031;-70
2021/12/03 01:30:22;;;;;;;4.60;1.00;;;;;;;12.31;44.13;101098.53;5035114;28;20106;-69
2021/12/03 01:32:49;;;;;;;2.77;1.13;;;;;;;12.78;43.30;101097.91;5034289;28;20020;-72
2021/12/03 01:35:15;;;;;;;8.77;0.80;;;;;;;12.51;43.83;101100.00;5053318;28;20037;-72
2021/12/03 01:37:42;;;;;;;4.07;0.93;;;;;;;12.92;42.21;101105.56;5053754;28;20044;-72
2021/12/03 01:40:11;;;;;;;1.93;0.60;;;;;;;13.51;41.14;101100.22;5054783;28;20360;-70
2021/12/03 01:42:38;;;;;;;2.10;0.60;;;;;;;13.17;40.95;101116.50;5055233;28;20116;-69
2021/12/03 01:45:06;;;;;;;2.67;0.90;;;;;;;13.25;42.13;101117.25;5053816;28;20496;-69
2021/12/03 01:47:31;;;;;;;2.23;0.90;;;;;;;13.40;41.26;101114.41;5037096;28;20435;-70
2021/12/03 01:49:57;;;;;;;3.37;0.97;;;;;;;13.27;41.22;101111.97;5034749;28;20032;-70
2021/12/03 01:52:22;;;;;;;2.30;1.23;;;;;;;12.71;42.74;101102.38;5034554;28;20040;-69
2021/12/03 01:54:48;;;;;;;2.53;0.80;;;;;;;12.78;42.26;101103.16;5052557;28;20029;-69
2021/12/03 01:57:13;;;;;;;1.30;0.50;;;;;;;12.51;42.92;101108.72;5068960;28;20032;-70
2021/12/03 01:59:39;;;;;;;3.90;0.70;;;;;;;12.08;44.31;101108.44;5034572;28;20021;-69
2021/12/03 02:02:04;;;;;;;5.27;0.70;;;;;;;12.59;42.80;101102.53;5034175;28;20394;-69
2021/12/03 02:04:30;;;;;;;0.63;0.40;;;;;;;10.76;47.17;101098.25;5034890;28;20021;-70
2021/12/03 02:06:55;;;;;;;5.50;0.53;;;;;;;11.66;45.11;101086.16;5041152;28;20036;-69
2021/12/03 02:09:21;;;;;;;5.47;0.83;;;;;;;11.66;46.14;101088.78;5034605;28;20056;-70
2021/12/03 02:11:46;;;;;;;5.43;0.90;;;;;;;12.26;44.28;101084.63;5034394;28;20409;-70
2021/12/03 02:14:12;;;;;;;2.33;0.70;;;;;;;11.90;44.60;101081.53;5051588;28;20053;-69
2021/12/03 02:16:38;;;;;;;2.50;0.70;;;;;;;12.55;43.29;101076.34;5038498;28;20571;-72
2021/12/03 02:19:04;;;;;;;3.17;0.83;;;;;;;13.06;42.49;101069.44;5033775;28;20136;-69
2021/12/03 02:21:30;;;;;;;2.80;0.83;;;;;;;12.64;43.45;101075.34;5052169;28;20040;-71
2021/12/03 02:23:56;;;;;;;2.10;0.97;;;;;;;12.00;44.51;101077.94;5051746;28;20127;-70
2021/12/03 02:26:22;;;;;;;3.77;0.80;;;;;;;12.64;43.24;101079.72;5054705;28;20021;-70
2021/12/03 02:28:50;;;;;;;2.10;0.80;;;;;;;11.32;46.75;101076.00;5033379;28;20037;-70
2021/12/03 02:31:19;;;;;;;2.37;0.63;;;;;;;12.32;44.62;101084.53;5034037;28;20074;-70
2021/12/03 02:33:45;;;;;;;1.23;0.63;;;;;;;12.62;44.06;101082.38;5052330;28;20024;-69
2021/12/03 02:36:11;;;;;;;2.57;0.77;;;;;;;12.20;44.29;101090.81;5064228;28;20396;-70
2021/12/03 02:38:36;;;;;;;1.87;0.77;;;;;;;11.52;45.31;101098.50;5054214;28;20025;-70
2021/12/03 02:41:03;;;;;;;6.00;0.63;;;;;;;10.80;48.33;101084.28;5052851;28;20024;-70
2021/12/03 02:43:29;;;;;;;2.03;0.80;;;;;;;11.62;46.14;101081.84;5053781;28;20081;-70
2021/12/03 02:45:57;;;;;;;2.23;0.73;;;;;;;11.27;46.86;101077.78;5042055;28;20060;-70
2021/12/03 02:48:24;;;;;;;4.37;0.93;;;;;;;11.08;46.91;101084.06;5032591;28;20910;-69
2021/12/03 02:50:49;;;;;;;8.33;0.70;;;;;;;10.37;49.11;101089.75;5033532;28;20025;-69
2021/12/03 02:53:15;;;;;;;2.37;0.93;;;;;;;10.75;48.21;101086.06;5033714;28;20040;-69
2021/12/03 02:55:40;;;;;;;2.53;0.63;;;;;;;11.13;47.90;101077.06;5040301;28;20023;-70
2021/12/03 02:58:06;;;;;;;3.27;0.90;;;;;;;12.04;45.45;101076.16;5053121;28;20060;-70
2021/12/03 03:00:32;;;;;;;5.60;0.83;;;;;;;12.57;44.51;101076.34;5053872;28;20407;-71
2021/12/03 03:02:58;;;;;;;3.03;0.73;;;;;;;12.73;43.32;101080.47;5070861;28;20032;-69
2021/12/03 03:05:26;;;;;;;4.40;0.80;;;;;;;12.64;43.37;101075.34;5045688;28;20037;-70
2021/12/03 03:07:51;;;;;;;4.23;1.53;;;;;;;12.64;43.10;101064.88;5053225;28;20033;-70
2021/12/03 03:10:21;;;;;;;1.33;0.60;;;;;;;12.09;45.06;101063.00;5071097;28;20484;-69
2021/12/03 03:12:47;;;;;;;3.07;0.73;;;;;;;12.34;44.01;101064.41;5053272;28;20472;-69
2021/12/03 03:15:16;;;;;;;3.33;0.60;;;;;;;12.52;43.14;101065.03;5042592;28;20120;-69
2021/12/03 03:17:41;;;;;;;7.60;1.10;;;;;;;13.00;43.10;101059.94;5052492;28;20081;-69
2021/12/03 03:20:09;;;;;;;2.30;0.50;;;;;;;12.94;42.76;101053.91;5070594;28;20263;-70
2021/12/03 03:22:39;;;;;;;3.60;0.60;;;;;;;12.67;43.40;101061.34;5053534;28;20135;-69
2021/12/03 03:25:06;;;;;;;1.20;0.80;;;;;;;12.24;44.56;101064.53;5069639;28;20024;-69
2021/12/03 03:27:31;;;;;;;7.10;0.70;;;;;;;12.75;42.74;101055.94;5052223;28;20480;-70
2021/12/03 03:29:58;;;;;;;5.60;1.07;;;;;;;12.32;43.84;101046.97;5035069;28;20031;-70
2021/12/03 03:32:24;;;;;;;3.23;0.60;;;;;;;12.04;44.97;101063.06;5033461;28;20027;-70
2021/12/03 03:34:49;;;;;;;1.47;0.40;;;;;;;11.06;46.22;101054.44;5050112;28;20037;-69
2021/12/03 03:37:16;;;;;;;4.00;0.80;;;;;;;12.49;44.91;101049.38;5032066;28;20112;-69
2021/12/03 03:39:45;;;;;;;1.60;0.60;;;;;;;13.00;44.07;101031.06;5052124;28;20063;-69
2021/12/03 03:42:11;;;;;;;2.33;0.53;;;;;;;12.20;45.36;101042.78;5049844;28;20046;-69
2021/12/03 03:44:37;;;;;;;4.03;0.67;;;;;;;11.99;45.80;101034.31;5052127;28;20025;-71
2021/12/03 03:47:05;;;;;;;4.07;1.10;;;;;;;11.14;48.68;101026.44;5069764;28;20024;-70
2021/12/03 03:49:30;;;;;;;2.20;0.50;;;;;;;11.25;47.31;101019.41;5051943;28;20060;-71
2021/12/03 03:51:56;;;;;;;5.33;0.80;;;;;;;11.40;47.58;101015.72;5051948;28;20067;-69
2021/12/03 03:54:22;;;;;;;3.07;1.03;;;;;;;11.05;49.77;101021.31;5052630;28;20227;-69
2021/12/03 03:56:48;;;;;;;2.47;0.63;;;;;;;11.19;48.84;101014.22;5050768;28;20028;-68
2021/12/03 03:59:17;;;;;;;1.23;0.60;;;;;;;11.94;46.57;101020.41;5051689;28;20123;-69
2021/12/03 04:01:47;;;;;;;1.63;0.50;;;;;;;12.72;44.93;101015.78;5040135;28;20025;-68
2021/12/03 04:04:13;;;;;;;0.70;0.70;;;;;;;12.26;45.46;101020.84;5052065;28;20031;-69
2021/12/03 04:06:39;;;;;;;3.10;0.80;;;;;;;12.11;45.92;101021.94;5043143;28;20037;-71
2021/12/03 04:09:06;;;;;;;6.90;0.80;;;;;;;11.69;47.27;101018.03;5049765;28;20082;-68
2021/12/03 04:11:32;;;;;;;3.30;0.60;;;;;;;12.10;46.74;101014.94;5047455;28;20024;-69
2021/12/03 04:13:57;;;;;;;4.30;1.17;;;;;;;12.33;46.11;101022.50;5051345;28;20366;-69
2021/12/03 04:16:23;;;;;;;4.00;0.67;;;;;;;12.17;45.74;101027.06;5044951;28;20033;-69
2021/12/03 04:18:48;;;;;;;4.43;1.17;;;;;;;11.84;46.80;101029.19;5031843;28;20068;-69
2021/12/03 04:21:15;;;;;;;3.40;0.53;;;;;;;12.12;47.79;101028.91;5032008;28;20033;-69
2021/12/03 04:23:40;;;;;;;0.70;0.50;;;;;;;13.57;44.29;101027.44;5032269;28;20473;-71
2021/12/03 04:26:06;;;;;;;2.33;0.80;;;;;;;13.91;43.17;101026.75;5050237;28;20044;-70
2021/12/03 04:28:31;;;;;;;1.10;0.70;;;;;;;14.16;42.96;101014.88;5032138;28;20021;-70
2021/12/03 04:30:57;;;;;;;2.23;1.10;;;;;;;13.48;44.58;101011.00;5032211;28;20063;-70
2021/12/03 04:33:22;;;;;;;5.60;1.27;;;;;;;13.65;43.27;101024.66;5032234;28;20021;-70
2021/12/03 04:35:48;;;;;;;1.13;0.60;;;;;;;14.10;42.67;101010.59;5032507;28;20062;-69
2021/12/03 04:38:13;;;;;;;2.27;0.70;;;;;;;12.84;45.32;101009.44;5051708;28;20032;-70
2021/12/03 04:40:40;;;;;;;2.03;0.80;;;;;;;13.70;43.78;101007.06;5051575;28;20054;-70
2021/12/03 04:43:06;;;;;;;6.03;0.90;;;;;;;13.11;44.82;101016.91;5050646;28;20107;-69
2021/12/03 04:45:33;;;;;;;3.30;0.83;;;;;;;12.31;45.98;101005.91;5053285;28;20063;-69
2021/12/03 04:48:02;;;;;;;5.17;1.10;;;;;;;12.56;45.88;101004.66;5035766;28;20021;-68
2021/12/03 04:50:31;;;;;;;9.33;1.20;;;;;;;13.01;45.26;100998.69;5036212;28;20315;-68
2021/12/03 04:52:57;;;;;;;7.73;1.47;;;;;;;12.11;47.22;100990.50;5035864;28;20037;-68
2021/12/03 04:55:23;;;;;;;6.67;1.23;;;;;;;12.00;47.55;100999.34;5046071;28;20024;-68
2021/12/03 04:57:50;;;;;;;3.87;1.60;;;;;;;13.42;45.02;100992.72;5055075;28;20115;-68
2021/12/03 05:00:22;;;;;;;10.83;1.83;;;;;;;11.30;50.50;101001.03;5055518;28;20107;-68
2021/12/03 05:02:50;;;;;;;6.13;1.77;;;;;;;11.90;48.55;100997.72;5072433;28;20058;-68
2021/12/03 05:05:17;;;;;;;4.40;1.53;;;;;;;12.75;46.78;100987.75;5072133;28;20028;-68
2021/12/03 05:07:54;;;;;;;9.23;1.87;;;;;;;12.81;45.20;100985.06;5056449;28;20051;-68
2021/12/03 05:10:20;;;;;;;7.20;2.10;;;;;;;13.11;45.91;100985.41;5035213;28;20108;-68
2021/12/03 05:12:46;;;;;;;7.93;2.40;;;;;;;11.73;48.46;100989.19;5053347;28;20024;-68
2021/12/03 05:15:11;;;;;;;9.77;2.50;;;;;;;11.84;49.43;100997.78;5035358;28;20090;-68
2021/12/03 05:17:36;;;;;;;9.63;2.57;;;;;;;12.49;46.85;100981.19;5068711;28;20070;-70
2021/12/03 05:20:03;;;;;;;10.47;3.67;;;;;;;12.84;47.10;100971.88;5073132;28;20121;-70
2021/12/03 05:22:29;;;;;;;11.63;3.10;;;;;;;12.41;47.84;100967.34;5055487;28;20165;-68
2021/12/03 05:24:54;;;;;;;10.50;3.17;;;;;;;12.95;45.46;100979.56;5053532;28;20032;-69
2021/12/03 05:27:20;;;;;;;9.03;3.10;;;;;;;13.34;45.48;100982.34;5042683;28;20036;-69
2021/12/03 05:29:48;;;;;;;6.20;3.20;;;;;;;13.10;45.38;100974.03;5052227;28;20544;-69
2021/12/03 05:32:15;;;;;;;10.37;3.10;;;;;;;12.98;45.71;100983.00;5052720;28;20017;-69
2021/12/03 05:34:41;;;;;;;6.23;3.00;;;;;;;12.01;48.22;100974.03;5035984;28;20024;-69
2021/12/03 05:37:07;;;;;;;5.40;2.83;;;;;;;12.22;46.87;100972.84;5061355;28;20189;-69
2021/12/03 05:39:34;;;;;;;13.87;3.37;;;;;;;11.74;48.96;100975.22;5050977;28;20087;-69
2021/12/03 05:41:59;;;;;;;13.33;3.87;;;;;;;12.15;49.68;100971.22;5054221;28;20025;-69
2021/12/03 05:44:25;;;;;;;5.80;3.10;;;;;;;12.22;46.89;100978.09;5048111;28;20075;-69
2021/12/03 05:46:50;;;;;;;4.40;2.73;;;;;;;11.94;49.59;100978.47;5046450;28;20028;-69
2021/12/03 05:49:16;;;;;;;11.83;3.30;;;;;;;11.96;48.33;100971.44;5034403;28;20025;-69
2021/12/03 05:51:42;;;;;;;8.10;3.30;;;;;;;12.21;47.22;100965.88;5033453;28;20033;-69
2021/12/03 05:54:09;;;;;;;12.63;2.80;;;;;;;12.84;46.22;100962.22;5049978;28;20032;-69
2021/12/03 05:56:34;;;;;;;12.13;3.07;;;;;;;11.35;50.13;100958.22;5053366;28;20051;-69
2021/12/03 05:59:00;;;;;;;13.13;3.10;;;;;;;12.52;46.89;100954.94;5068635;28;20087;-69
2021/12/03 06:01:25;;;;;;;11.93;2.77;;;;;;;11.22;49.45;100961.84;5054241;28;20097;-69
2021/12/03 06:03:50;;;;;;;10.67;3.00;;;;;;;11.70;49.36;100966.53;5071757;28;20064;-69
2021/12/03 06:06:16;;;;;;;6.83;2.90;;;;;;;12.24;48.03;100960.59;5052320;28;20058;-69
2021/12/03 06:08:43;;;;;;;7.50;2.73;;;;;;;11.53;50.22;100966.75;5034108;28;20063;-69
2021/12/03 06:11:08;;;;;;;8.07;2.87;;;;;;;12.24;48.15;100971.09;5034106;28;20029;-70
2021/12/03 06:13:39;;;;;;;11.83;3.63;;;;;;;11.79;48.18;100978.66;5065432;28;20028;-69
2021/12/03 06:16:06;;;;;;;13.53;2.50;;;;;;;11.33;49.46;100972.19;5070980;28;20028;-68
2021/12/03 06:18:31;;;;;;;8.67;2.73;;;;;;;12.16;47.65;100972.94;5034193;28;20029;-69
2021/12/03 06:20:56;;;;;;;10.17;3.10;;;;;;;11.84;48.06;100976.81;5033023;28;20029;-69
2021/12/03 06:23:22;;;;;;;8.70;2.73;;;;;;;11.49;48.84;100965.03;5033628;28;20509;-69
2021/12/03 06:25:47;;;;;;;12.87;2.50;;;;;;;12.90;45.70;100967.38;5033698;28;20020;-69
2021/12/03 06:28:13;;;;;;;10.37;2.77;;;;;;;12.79;46.03;100968.47;5052025;28;20439;-69
2021/12/03 06:30:38;;;;;;;12.50;3.67;;;;;;;11.81;47.38;100972.47;5034163;28;20025;-69
2021/12/03 06:33:05;;;;;;;9.70;2.97;;;;;;;12.23;47.04;100969.34;5032652;28;20037;-69
2021/12/03 06:35:30;;;;;;;13.90;2.90;;;;;;;11.84;47.38;100967.22;5034008;28;20025;-69
2021/12/03 06:37:56;;;;;;;9.40;2.53;;;;;;;12.62;45.62;100966.97;5034393;28;20048;-69
2021/12/03 06:40:24;;;;;;;7.37;2.67;;;;;;;12.88;44.76;100971.78;5032964;28;20033;-69
2021/12/03 06:42:50;;;;;;;6.33;2.47;;;;;;;11.70;46.80;100977.88;5050921;28;20021;-69
2021/12/03 06:45:16;;;;;;;8.60;2.23;;;;;;;11.56;48.29;100969.31;5048809;28;20107;-69
2021/12/03 06:47:42;;;;;;;7.53;3.97;;;;;;;12.25;47.00;100966.69;5048016;28;20111;-70
2021/12/03 06:50:10;;;;;;;7.63;2.60;;;;;;;12.45;46.40;100951.53;5052659;28;20547;-69
2021/12/03 06:52:38;;;;;;;11.87;2.97;;;;;;;11.01;47.75;100962.94;5071455;28;20078;-69
2021/12/03 06:55:09;;;;;;;8.07;3.10;;;;;;;11.77;47.31;100951.59;5070252;28;20103;-70
2021/12/03 06:57:34;;;;;;;18.13;3.83;;;;;;;11.48;47.21;100939.75;5045683;28;20024;-69
2021/12/03 06:59:59;;;;;;;11.83;3.10;;;;;;;11.23;46.44;100942.66;5050906;28;20566;-70
2021/12/03 07:02:25;;;;;;;12.43;3.27;;;;;;;10.99;47.66;100933.28;5052042;28;20024;-69
2021/12/03 07:04:50;;;;;;;9.77;3.27;;;;;;;12.51;45.28;100940.06;5052898;28;20119;-68
2021/12/03 07:07:16;;;;;;;13.17;3.40;;;;;;;12.33;44.50;100942.09;5062213;28;20052;-69
2021/12/03 07:09:41;;;;;;;7.10;3.03;;;;;;;11.11;45.85;100948.00;5031276;28;20029;-68
2021/12/03 07:12:08;;;;;;;16.47;3.97;;;;;;;11.15;46.16;100947.94;5032866;28;20653;-69
2021/12/03 07:14:34;;;;;;;10.97;2.87;;;;;;;11.69;44.56;100957.81;5043931;28;20017;-68
2021/12/03 07:16:59;;;;;;;8.27;2.83;;;;;;;11.86;44.66;100954.97;5062618;28;20025;-68
2021/12/03 07:19:25;;;;;;;7.97;2.97;;;;;;;11.93;43.91;100950.50;5047846;28;20079;-68
2021/12/03 07:21:50;;;;;;;9.50;2.77;;;;;;;12.42;42.86;100954.22;5041930;28;20535;-69
2021/12/03 07:24:16;;;;;;;14.53;3.13;;;;;;;11.35;43.71;100957.34;5048586;28;20059;-68
2021/12/03 07:26:41;;;;;;;8.43;2.73;;;;;;;11.92;43.75;100951.41;5044696;28;20022;-68
2021/12/03 07:29:06;;;;;;;11.73;2.50;;;;;;;10.49;46.79;100953.78;5034216;28;20111;-68
2021/12/03 07:31:32;;;;;;;7.63;2.93;;;;;;;10.95;46.10;100948.16;5028770;28;20036;-68
2021/12/03 07:33:57;;;;;;;5.33;2.10;;;;;;;11.14;45.27;100947.97;5039395;28;20027;-68
2021/12/03 07:36:24;;;;;;;6.90;2.27;;;;;;;10.57;46.63;100949.38;5037320;28;20520;-68
2021/12/03 07:38:50;;;;;;;8.83;2.40;;;;;;;10.31;47.37;100933.88;5034265;28;20040;-68
2021/12/03 07:41:15;;;;;;;10.07;2.37;;;;;;;10.81;46.86;100934.34;5029695;28;20393;-68
2021/12/03 07:43:41;;;;;;;6.20;2.40;;;;;;;10.74;46.16;100938.75;5028600;28;20033;-68
2021/12/03 07:46:06;;;;;;;10.90;2.93;;;;;;;11.72;43.49;100935.97;5028617;28;20037;-69
2021/12/03 07:48:31;;;;;;;10.27;2.60;;;;;;;11.21;44.40;100939.19;5029145;28;20036;-69
2021/12/03 07:50:57;;;;;;;7.40;3.37;;;;;;;11.10;45.09;100930.56;5029229;28;20079;-69
2021/12/03 07:53:24;;;;;;;7.40;2.60;;;;;;;10.31;47.01;100924.28;5029764;28;20433;-68
2021/12/03 07:55:51;;;;;;;7.07;2.63;;;;;;;10.53;47.96;100924.13;5029594;28;20057;-68
2021/12/03 07:58:17;;;;;;;10.70;2.97;;;;;;;10.70;46.17;100916.13;5030489;28;20033;-69
2021/12/03 08:00:44;;;;;;;13.37;3.43;;;;;;;10.48;46.27;100920.69;5048907;28;20031;-69
2021/12/03 08:03:10;;;;;;;8.20;3.40;;;;;;;11.42;44.77;100916.28;5045500;28;20392;-68
2021/12/03 08:05:36;;;;;;;7.83;2.87;;;;;;;11.37;44.79;100927.66;5042157;28;20025;-69
2021/12/03 08:08:01;;;;;;;8.03;2.70;;;;;;;11.36;44.75;100925.03;5048823;28;20166;-70
2021/12/03 08:10:27;;;;;;;10.47;3.10;;;;;;;11.27;43.95;100928.66;5047029;28;20025;-70
2021/12/03 08:12:53;;;;;;;12.53;3.50;;;;;;;10.94;46.24;100920.28;5047189;28;20028;-69
2021/12/03 08:15:19;;;;;;;11.23;4.00;;;;;;;10.55;46.38;100924.13;5048955;28;20048;-68
2021/12/03 08:17:53;;;;;;;12.40;3.20;;;;;;;10.52;46.60;100917.16;5047453;28;20476;-69
2021/12/03 08:20:19;;;;;;;10.07;3.13;;;;;;;11.47;44.51;100914.44;5046868;28;20063;-68
2021/12/03 08:22:44;;;;;;;6.80;2.70;;;;;;;11.77;43.24;100907.09;5039937;28;20032;-69
2021/12/03 08:25:10;;;;;;;12.73;3.47;;;;;;;12.00;43.75;100897.16;5046607;28;20485;-68
2021/12/03 08:27:36;;;;;;;6.67;2.60;;;;;;;11.32;44.78;100900.69;5047913;28;20369;-68
2021/12/03 08:30:04;;;;;;;9.67;2.97;;;;;;;11.15;45.11;100897.38;5045230;28;20087;-68
2021/12/03 08:32:30;;;;;;;7.13;2.37;;;;;;;11.49;44.56;100903.06;5046407;28;20028;-69
2021/12/03 08:34:55;;;;;;;9.80;2.50;;;;;;;12.54;42.56;100895.44;5046768;28;20489;-69
2021/12/03 08:37:20;;;;;;;9.73;2.83;;;;;;;12.06;42.71;100888.34;5048375;28;20044;-69
2021/12/03 08:39:46;;;;;;;8.33;2.77;;;;;;;10.78;46.09;100895.16;5048704;28;20043;-69
2021/12/03 08:42:12;;;;;;;9.53;2.43;;;;;;;11.33;45.34;100880.59;5034244;28;20037;-69
2021/12/03 08:44:38;;;;;;;8.07;1.90;;;;;;;11.24;45.35;100885.94;5029914;28;20473;-69
2021/12/03 08:47:06;;;;;;;10.57;2.60;;;;;;;10.95;44.41;100880.16;5034918;28;20037;-66
2021/12/03 08:49:46;;;;;;;7.23;2.27;;;;;;;13.33;41.48;100867.75;5039654;28;20047;-68
2021/12/03 08:54:55;;;;;;;7.13;2.33;;;;;;;12.27;42.64;100875.81;5048232;28;20469;-69
2021/12/03 08:57:24;;;;;;;10.27;1.77;;;;;;;10.91;45.16;100873.25;5049803;28;20029;-69
2021/12/03 08:59:52;;;;;;;5.10;2.60;;;;;;;11.62;44.07;100872.38;5047704;28;20032;-69
2021/12/03 09:02:18;;;;;;;11.83;2.10;;;;;;;11.03;45.01;100867.88;5028896;28;20026;-69
2021/12/03 09:04:44;;;;;;;6.23;1.50;;;;;;;10.95;44.77;100864.47;5029419;28;20099;-69
2021/12/03 09:07:09;;;;;;;6.07;1.63;;;;;;;11.45;44.23;100856.03;5043735;28;20079;-69
2021/12/03 09:09:35;;;;;;;4.67;1.90;;;;;;;11.49;45.65;100860.34;5031160;28;20029;-70
2021/12/03 09:12:01;;;;;;;6.30;1.37;;;;;;;12.22;43.23;100847.06;5052124;28;20527;-71
2021/12/03 09:14:36;;;;;;;6.80;1.50;;;;;;;11.90;43.43;100851.03;5048588;28;20013;-71
2021/12/03 09:19:43;;;;;;;11.20;1.60;;;;;;;11.24;44.53;100833.59;5040756;28;20049;-71
2021/12/03 09:22:11;;;;;;;6.67;1.90;;;;;;;11.75;43.80;100820.69;5029591;28;20044;-71
2021/12/03 09:24:37;;;;;;;4.93;1.90;;;;;;;11.81;43.74;100824.97;5030830;28;20029;-68
2021/12/03 09:27:03;;;;;;;10.87;1.80;;;;;;;12.14;43.38;100841.06;5030446;28;20017;-71
2021/12/03 09:29:32;;;;;;;12.97;2.50;;;;;;;11.10;44.92;100833.78;5035970;28;20029;-71
2021/12/03 09:31:59;;;;;;;8.80;2.23;;;;;;;12.30;43.11;100829.44;5047360;28;20020;-71
2021/12/03 09:34:25;;;;;;;9.13;2.00;;;;;;;11.30;45.07;100830.94;5054659;28;20423;-71
2021/12/03 09:36:51;;;;;;;4.97;2.23;;;;;;;11.51;44.71;100832.38;5041150;28;20036;-71
2021/12/03 09:39:22;;;;;;;10.40;1.80;;;;;;;11.44;44.83;100834.22;5052411;28;20029;-71
2021/12/03 09:41:50;;;;;;;9.80;2.73;;;;;;;11.06;45.11;100825.13;5033338;28;20064;-71
2021/12/03 09:44:16;;;;;;;9.43;2.47;;;;;;;11.41;44.92;100815.94;5037023;28;20036;-71
2021/12/03 09:46:42;;;;;;;10.50;2.70;;;;;;;12.08;44.40;100817.63;5044972;28;20384;-71
2021/12/03 09:54:29;;;;;;;12.60;3.17;;;;;;;12.24;44.25;100808.59;5071912;28;20102;-71
2021/12/03 09:57:10;;;;;;;12.53;2.97;;;;;;;12.09;44.83;100804.47;5053157;28;20035;-71
2021/12/03 10:16:02;;;;;;;14.73;3.40;;;;;;;11.48;48.89;100775.69;5051635;28;20116;-71
2021/12/03 10:18:42;;;;;;;14.07;3.37;;;;;;;10.44;51.36;100775.25;5059986;28;20028;-71
2021/12/03 10:21:19;;;;;;;12.33;3.87;;;;;;;11.07;48.07;100769.28;5042249;28;20782;-71
2021/12/03 10:29:14;;;;;;;15.03;3.40;;;;;;;11.24;49.03;100761.22;5067183;28;20507;-70
2021/12/03 10:40:14;;;;;;;11.93;3.03;;;;;;;12.37;47.33;100736.69;5052249;28;20547;-70
2021/12/03 11:06:48;;;;;;;11.83;3.10;;;;;;;11.12;48.83;100698.63;5051358;28;20099;-71
2021/12/03 11:17:56;;;;;;;9.63;2.83;;;;;;;12.10;44.95;100666.47;5065120;28;20029;-70
2021/12/03 13:00:37;;;;;;;5.63;2.60;;;;;;;10.09;55.91;100530.94;5057712;28;20052;-70
2021/12/03 13:06:53;;;;;;;4.47;2.07;;;;;;;11.89;50.38;100499.19;5072011;28;20462;-70
2021/12/03 14:00:19;;;;;;;4.43;2.40;;;;;;;11.23;54.63;100481.31;5070021;28;20061;-69
2021/12/03 14:11:53;;;;;;;5.90;2.73;;;;;;;10.70;58.95;100487.41;5069748;28;20044;-70
2021/12/03 14:29:41;;;;;;;8.43;3.60;;;;;;;11.31;56.04;100461.09;5053382;28;20401;-70
2021/12/03 14:46:43;;;;;;;6.55;4.45;;;;;;;12.52;52.40;100454.19;5070576;28;20404;-70
2021/12/03 14:51:48;;;;;;;6.87;4.70;;;;;;;11.82;53.81;100444.38;5052739;28;20044;-71
2021/12/03 14:57:14;;;;;;;7.70;4.43;;;;;;;11.65;59.60;100442.97;5055265;28;20377;-70
2021/12/03 14:59:52;;;;;;;5.97;3.57;;;;;;;12.27;57.06;100428.56;5037491;28;20017;-70
2021/12/03 15:02:41;;;;;;;6.40;4.40;;;;;;;11.81;56.52;100432.16;5054604;28;20039;-70
2021/12/03 15:08:11;;;;;;;6.17;3.80;;;;;;;11.22;57.27;100422.88;4989818;28;20260;-70
2021/12/03 15:11:04;;;;;;;8.13;5.83;;;;;;;11.39;57.92;100427.78;5026055;28;20032;-70
2021/12/03 15:26:43;;;;;;;10.03;5.67;;;;;;;11.99;55.58;100421.34;5063675;28;20035;-70
2021/12/03 15:34:56;;;;;;;9.63;6.30;;;;;;;11.76;57.27;100413.06;5052658;28;20032;-69
2021/12/03 16:04:00;;;;;;;13.83;8.57;;;;;;;12.08;54.38;100377.50;5049673;28;20071;-70
2021/12/03 16:06:34;;;;;;;13.90;7.43;;;;;;;12.05;54.65;100374.03;5050773;28;20425;-70
2021/12/03 16:12:02;;;;;;;12.93;7.90;;;;;;;12.66;52.92;100347.19;5015082;28;20037;-70
2021/12/03 16:20:05;;;;;;;16.10;8.30;;;;;;;12.82;51.46;100349.41;5051964;28;20413;-69
2021/12/03 16:47:01;;;;;;;11.67;7.40;;;;;;;12.35;54.05;100350.59;5053596;28;20440;-70
2021/12/03 16:52:13;;;;;;;15.03;8.90;;;;;;;12.12;55.31;100356.41;5054045;28;20473;-70
2021/12/03 16:54:44;;;;;;;12.40;7.93;;;;;;;12.23;53.74;100350.91;5035951;28;20070;-70
2021/12/03 16:57:12;;;;;;;14.23;8.90;;;;;;;12.01;54.70;100355.81;5035923;28;20021;-70
2021/12/03 16:59:40;;;;;;;17.00;8.83;;;;;;;12.37;51.99;100340.94;5035119;28;20055;-70
2021/12/03 17:02:09;;;;;;;17.23;8.80;;;;;;;11.73;55.86;100339.84;5054168;28;20088;-71
2021/12/03 17:12:57;;;;;;;16.13;9.40;;;;;;;12.99;49.76;100315.69;4999221;28;20121;-70
2021/12/03 17:58:43;;;;;;;17.50;9.90;;;;;;;12.15;53.68;100284.75;5053598;28;20032;-69
2021/12/03 18:11:59;;;;;;;16.53;9.77;;;;;;;12.68;52.16;100266.72;5064328;28;20488;-69
2021/12/03 18:43:23;;;;;;;17.23;9.13;;;;;;;12.94;50.53;100274.75;5070066;28;20064;-69
2021/12/03 18:56:53;;;;;;;18.03;10.27;;;;;;;13.27;50.73;100287.78;5066782;28;20024;-70
2021/12/03 18:59:20;;;;;;;15.57;9.03;;;;;;;12.81;52.70;100282.13;5055831;28;20048;-70
2021/12/03 19:01:46;;;;;;;12.37;7.97;;;;;;;12.91;52.96;100275.69;5037396;28;20020;-70